sensor_id;sensor_type;location;lat;lon;timestamp;pressure;altitude;pressure_sealevel;temperature;humidity
45467;BME280;31212;49.734;8.490;2023-07-28T05:06:10;100192.84;;;17.82;100.00
45467;BME280;31212;49.734;8.490;2023-07-28T05:08:37;100152.94;;;17.99;100.00
45467;BME280;31212;49.734;8.490;2023-07-28T05:11:03;100107.53;;;17.95;100.00
45467;BME280;31212;49.734;8.490;2023-07-28T05:22:15;99961.06;;;18.27;100.00
45467;BME280;31212;49.734;8.490;2023-07-28T05:24:52;99930.16;;;18.36;100.00
45467;BME280;31212;49.734;8.490;2023-07-28T05:27:19;99902.53;;;18.47;100.00
45467;BME280;31212;49.734;8.490;2023-07-28T05:29:47;99875.63;;;18.41;100.00
45467;BME280;31212;49.734;8.490;2023-07-28T05:32:14;99860.72;;;18.41;100.00
45467;BME280;31212;49.734;8.490;2023-07-28T05:34:57;99841.22;;;18.47;100.00
45467;BME280;31212;49.734;8.490;2023-07-28T05:37:25;99821.19;;;18.44;100.00
45467;BME280;31212;49.734;8.490;2023-07-28T05:39:51;99808.16;;;18.63;100.00
45467;BME280;31212;49.734;8.490;2023-07-28T05:42:19;99801.16;;;18.64;100.00
45467;BME280;31212;49.734;8.490;2023-07-28T05:44:48;99796.06;;;18.81;100.00
45467;BME280;31212;49.734;8.490;2023-07-28T05:47:15;99788.53;;;18.72;100.00
45467;BME280;31212;49.734;8.490;2023-07-28T05:49:41;99781.91;;;18.84;100.00
45467;BME280;31212;49.734;8.490;2023-07-28T05:52:08;99793.16;;;18.88;100.00
45467;BME280;31212;49.734;8.490;2023-07-28T05:54:36;99782.50;;;18.92;100.00
45467;BME280;31212;49.734;8.490;2023-07-28T05:57:03;99777.63;;;19.04;100.00
45467;BME280;31212;49.734;8.490;2023-07-28T05:59:29;99768.09;;;19.01;100.00
45467;BME280;31212;49.734;8.490;2023-07-28T06:01:56;99767.63;;;19.12;100.00
45467;BME280;31212;49.734;8.490;2023-07-28T06:04:41;99762.50;;;19.29;100.00
45467;BME280;31212;49.734;8.490;2023-07-28T06:07:07;99750.97;;;19.53;100.00
45467;BME280;31212;49.734;8.490;2023-07-28T06:09:36;99748.66;;;19.65;100.00
45467;BME280;31212;49.734;8.490;2023-07-28T06:12:04;99734.03;;;19.58;100.00
45467;BME280;31212;49.734;8.490;2023-07-28T06:14:31;99734.59;;;19.65;100.00
45467;BME280;31212;49.734;8.490;2023-07-28T06:16:58;99733.34;;;19.74;100.00
45467;BME280;31212;49.734;8.490;2023-07-28T06:19:28;99739.53;;;19.73;100.00
45467;BME280;31212;49.734;8.490;2023-07-28T06:21:55;99743.81;;;19.75;100.00
45467;BME280;31212;49.734;8.490;2023-07-28T06:24:21;99741.31;;;19.72;100.00
45467;BME280;31212;49.734;8.490;2023-07-28T06:26:49;99739.16;;;19.82;100.00
45467;BME280;31212;49.734;8.490;2023-07-28T06:29:16;99736.72;;;19.96;99.25
45467;BME280;31212;49.734;8.490;2023-07-28T06:31:42;99736.16;;;20.09;98.83
45467;BME280;31212;49.734;8.490;2023-07-28T06:34:09;99737.47;;;20.17;97.54
45467;BME280;31212;49.734;8.490;2023-07-28T06:36:35;99731.81;;;20.08;96.91
45467;BME280;31212;49.734;8.490;2023-07-28T06:39:02;99742.63;;;20.21;96.82
45467;BME280;31212;49.734;8.490;2023-07-28T06:41:29;99740.91;;;20.20;96.67
45467;BME280;31212;49.734;8.490;2023-07-28T06:44:00;99747.91;;;20.21;96.18
45467;BME280;31212;49.734;8.490;2023-07-28T06:46:28;99757.97;;;20.12;96.62
45467;BME280;31212;49.734;8.490;2023-07-28T06:48:55;99760.94;;;20.24;96.97
45467;BME280;31212;49.734;8.490;2023-07-28T06:51:21;99753.44;;;20.33;95.92
45467;BME280;31212;49.734;8.490;2023-07-28T06:53:48;99738.88;;;20.44;94.70
45467;BME280;31212;49.734;8.490;2023-07-28T06:56:14;99721.28;;;20.44;94.25
45467;BME280;31212;49.734;8.490;2023-07-28T06:58:41;99722.38;;;20.58;93.44
45467;BME280;31212;49.734;8.490;2023-07-28T07:01:09;99711.63;;;20.62;92.57
45467;BME280;31212;49.734;8.490;2023-07-28T07:03:36;99701.09;;;20.80;91.67
45467;BME280;31212;49.734;8.490;2023-07-28T07:06:02;99689.75;;;20.78;90.54
45467;BME280;31212;49.734;8.490;2023-07-28T07:08:29;99690.75;;;21.10;90.08
45467;BME280;31212;49.734;8.490;2023-07-28T07:10:55;99661.13;;;21.21;88.57
45467;BME280;31212;49.734;8.490;2023-07-28T07:13:22;99655.63;;;21.42;87.74
45467;BME280;31212;49.734;8.490;2023-07-28T07:15:48;99653.41;;;21.67;87.24
45467;BME280;31212;49.734;8.490;2023-07-28T07:18:16;99604.22;;;22.27;83.97
45467;BME280;31212;49.734;8.490;2023-07-28T07:20:43;99532.25;;;22.67;80.91
45467;BME280;31212;49.734;8.490;2023-07-28T07:23:10;99498.38;;;23.01;78.78
45467;BME280;31212;49.734;8.490;2023-07-28T07:25:36;99495.56;;;22.75;77.90
45467;BME280;31212;49.734;8.490;2023-07-28T07:28:04;99501.44;;;22.95;77.41
45467;BME280;31212;49.734;8.490;2023-07-28T07:30:32;99502.53;;;23.05;77.14
45467;BME280;31212;49.734;8.490;2023-07-28T07:32:58;99494.81;;;23.16;76.23
45467;BME280;31212;49.734;8.490;2023-07-28T07:35:26;99499.84;;;23.61;75.98
45467;BME280;31212;49.734;8.490;2023-07-28T07:37:53;99450.66;;;24.10;73.58
45467;BME280;31212;49.734;8.490;2023-07-28T07:40:19;99346.66;;;25.29;69.23
45467;BME280;31212;49.734;8.490;2023-07-28T07:42:47;99296.06;;;26.23;66.89
45467;BME280;31212;49.734;8.490;2023-07-28T07:45:15;99181.13;;;26.73;63.16
45467;BME280;31212;49.734;8.490;2023-07-28T07:47:42;99183.09;;;27.23;61.61
45467;BME280;31212;49.734;8.490;2023-07-28T07:50:10;99109.59;;;28.22;59.03
45467;BME280;31212;49.734;8.490;2023-07-28T07:52:38;99094.53;;;28.50;56.98
45467;BME280;31212;49.734;8.490;2023-07-28T07:55:06;99088.63;;;27.97;56.85
45467;BME280;31212;49.734;8.490;2023-07-28T07:57:32;99125.22;;;27.25;57.60
45467;BME280;31212;49.734;8.490;2023-07-28T07:59:59;99223.09;;;26.69;59.58
45467;BME280;31212;49.734;8.490;2023-07-28T08:02:25;99224.91;;;26.69;59.58
45467;BME280;31212;49.734;8.490;2023-07-28T08:04:52;99278.16;;;25.68;61.18
45467;BME280;31212;49.734;8.490;2023-07-28T08:07:19;99366.47;;;24.77;63.54
45467;BME280;31212;49.734;8.490;2023-07-28T08:09:47;99417.63;;;24.79;64.32
45467;BME280;31212;49.734;8.490;2023-07-28T08:12:14;99423.94;;;24.65;64.63
45467;BME280;31212;49.734;8.490;2023-07-28T08:14:41;99474.22;;;24.28;66.29
45467;BME280;31212;49.734;8.490;2023-07-28T08:17:08;99486.00;;;24.11;67.03
45467;BME280;31212;49.734;8.490;2023-07-28T08:19:34;99514.97;;;24.14;67.89
45467;BME280;31212;49.734;8.490;2023-07-28T08:22:01;99491.63;;;23.79;67.69
45467;BME280;31212;49.734;8.490;2023-07-28T08:24:29;99543.50;;;23.56;68.67
45467;BME280;31212;49.734;8.490;2023-07-28T08:26:57;99547.28;;;23.24;69.28
45467;BME280;31212;49.734;8.490;2023-07-28T08:29:23;99609.38;;;22.90;70.71
45467;BME280;31212;49.734;8.490;2023-07-28T08:31:50;99639.09;;;22.34;72.22
45467;BME280;31212;49.734;8.490;2023-07-28T08:34:17;99671.38;;;22.41;73.38
45467;BME280;31212;49.734;8.490;2023-07-28T08:36:43;99670.69;;;22.37;73.52
45467;BME280;31212;49.734;8.490;2023-07-28T08:39:10;99669.16;;;22.01;74.03
45467;BME280;31212;49.734;8.490;2023-07-28T08:41:37;99710.34;;;21.89;75.25
45467;BME280;31212;49.734;8.490;2023-07-28T08:44:05;99729.84;;;22.02;76.00
45467;BME280;31212;49.734;8.490;2023-07-28T08:46:32;99688.69;;;22.14;74.87
45467;BME280;31212;49.734;8.490;2023-07-28T08:48:59;99653.59;;;22.27;73.98
45467;BME280;31212;49.734;8.490;2023-07-28T08:51:26;99670.53;;;22.55;73.84
45467;BME280;31212;49.734;8.490;2023-07-28T08:53:52;99581.00;;;22.63;71.73
45467;BME280;31212;49.734;8.490;2023-07-28T08:56:20;99553.97;;;22.72;70.78
45467;BME280;31212;49.734;8.490;2023-07-28T08:58:45;99575.25;;;22.71;71.21
45467;BME280;31212;49.734;8.490;2023-07-28T09:01:13;99552.59;;;22.81;70.77
45467;BME280;31212;49.734;8.490;2023-07-28T09:03:40;99572.53;;;22.87;71.10
45467;BME280;31212;49.734;8.490;2023-07-28T09:06:07;99559.63;;;22.66;70.82
45467;BME280;31212;49.734;8.490;2023-07-28T09:08:35;99581.78;;;22.65;71.41
45467;BME280;31212;49.734;8.490;2023-07-28T09:11:03;99588.94;;;22.32;71.50
45467;BME280;31212;49.734;8.490;2023-07-28T09:13:36;99634.47;;;22.07;72.65
45467;BME280;31212;49.734;8.490;2023-07-28T09:16:03;99664.47;;;22.06;73.56
45467;BME280;31212;49.734;8.490;2023-07-28T09:18:31;99679.09;;;22.28;73.51
45467;BME280;31212;49.734;8.490;2023-07-28T09:20:58;99655.84;;;22.34;73.21
45467;BME280;31212;49.734;8.490;2023-07-28T09:23:29;99625.41;;;22.72;72.15
45467;BME280;31212;49.734;8.490;2023-07-28T09:25:58;99605.78;;;23.05;71.34
45467;BME280;31212;49.734;8.490;2023-07-28T09:28:36;99570.97;;;23.40;70.08
45467;BME280;31212;49.734;8.490;2023-07-28T09:31:04;99570.03;;;23.41;69.93
45467;BME280;31212;49.734;8.490;2023-07-28T09:33:33;99611.84;;;23.36;70.77
45467;BME280;31212;49.734;8.490;2023-07-28T09:36:07;99590.19;;;23.29;70.61
45467;BME280;31212;49.734;8.490;2023-07-28T09:38:36;99569.88;;;23.30;70.12
45467;BME280;31212;49.734;8.490;2023-07-28T09:41:04;99573.69;;;23.53;69.94
45467;BME280;31212;49.734;8.490;2023-07-28T09:43:33;99591.78;;;23.32;70.69
45467;BME280;31212;49.734;8.490;2023-07-28T09:46:01;99549.06;;;22.95;70.07
45467;BME280;31212;49.734;8.490;2023-07-28T09:48:32;99569.84;;;22.58;70.67
45467;BME280;31212;49.734;8.490;2023-07-28T09:51:02;99582.31;;;22.25;71.16
45467;BME280;31212;49.734;8.490;2023-07-28T09:53:35;99632.84;;;22.05;72.21
45467;BME280;31212;49.734;8.490;2023-07-28T09:56:07;99669.16;;;22.01;72.91
45467;BME280;31212;49.734;8.490;2023-07-28T09:58:38;99688.03;;;21.95;73.52
45467;BME280;31212;49.734;8.490;2023-07-28T10:01:08;99669.50;;;21.79;73.43
45467;BME280;31212;49.734;8.490;2023-07-28T10:03:36;99688.34;;;21.73;74.14
45467;BME280;31212;49.734;8.490;2023-07-28T10:06:03;99715.78;;;21.86;74.43
45467;BME280;31212;49.734;8.490;2023-07-28T10:08:31;99684.78;;;21.90;73.67
45467;BME280;31212;49.734;8.490;2023-07-28T10:10:59;99633.63;;;22.07;72.41
45467;BME280;31212;49.734;8.490;2023-07-28T10:13:25;99653.47;;;22.14;72.69
45467;BME280;31212;49.734;8.490;2023-07-28T10:15:53;99625.19;;;22.30;71.91
45467;BME280;31212;49.734;8.490;2023-07-28T10:18:20;99581.28;;;22.58;70.67
45467;BME280;31212;49.734;8.490;2023-07-28T10:20:49;99563.16;;;22.95;70.00
45467;BME280;31212;49.734;8.490;2023-07-28T10:23:17;99506.72;;;22.80;68.67
45467;BME280;31212;49.734;8.490;2023-07-28T10:25:46;99533.34;;;23.06;69.01
45467;BME280;31212;49.734;8.490;2023-07-28T10:28:26;99569.31;;;23.25;69.51
45467;BME280;31212;49.734;8.490;2023-07-28T10:30:54;99524.06;;;23.42;68.34
45467;BME280;31212;49.734;8.490;2023-07-28T10:33:29;99468.41;;;24.23;66.64
45467;BME280;31212;49.734;8.490;2023-07-28T10:35:58;99378.03;;;24.26;64.40
45467;BME280;31212;49.734;8.490;2023-07-28T10:38:33;99385.81;;;24.40;64.01
45467;BME280;31212;49.734;8.490;2023-07-28T10:41:06;99382.38;;;24.77;63.93
45467;BME280;31212;49.734;8.490;2023-07-28T10:43:33;99352.81;;;25.65;62.49
45467;BME280;31212;49.734;8.490;2023-07-28T10:45:59;99245.16;;;26.16;59.97
45467;BME280;31212;49.734;8.490;2023-07-28T10:48:26;99223.41;;;25.77;59.63
45467;BME280;31212;49.734;8.490;2023-07-28T10:50:53;99238.41;;;25.56;60.07
45467;BME280;31212;49.734;8.490;2023-07-28T10:53:21;99321.34;;;24.77;61.74
45467;BME280;31212;49.734;8.490;2023-07-28T10:55:47;99398.91;;;24.30;63.47
45467;BME280;31212;49.734;8.490;2023-07-28T10:58:14;99432.97;;;24.11;64.15
45467;BME280;31212;49.734;8.490;2023-07-28T11:00:40;99459.56;;;23.96;65.01
45467;BME280;31212;49.734;8.490;2023-07-28T11:03:08;99474.81;;;23.93;65.31
45467;BME280;31212;49.734;8.490;2023-07-28T11:05:34;99479.03;;;23.82;65.49
45467;BME280;31212;49.734;8.490;2023-07-28T11:08:03;99492.91;;;23.86;65.74
45467;BME280;31212;49.734;8.490;2023-07-28T11:10:31;99493.63;;;23.62;65.92
45467;BME280;31212;49.734;8.490;2023-07-28T11:13:01;99494.00;;;23.56;66.09
45467;BME280;31212;49.734;8.490;2023-07-28T11:15:28;99489.50;;;23.71;65.69
45467;BME280;31212;49.734;8.490;2023-07-28T11:17:55;99478.00;;;23.58;65.75
45467;BME280;31212;49.734;8.490;2023-07-28T11:20:23;99504.50;;;23.58;66.10
45467;BME280;31212;49.734;8.490;2023-07-28T11:22:53;99523.31;;;23.67;66.10
45467;BME280;31212;49.734;8.490;2023-07-28T11:25:20;99491.06;;;23.61;65.88
45467;BME280;31212;49.734;8.490;2023-07-28T11:27:48;99505.50;;;23.69;66.13
45467;BME280;31212;49.734;8.490;2023-07-28T11:30:16;99508.81;;;23.73;66.16
45467;BME280;31212;49.734;8.490;2023-07-28T11:32:45;99515.25;;;23.69;66.11
45467;BME280;31212;49.734;8.490;2023-07-28T11:35:13;99491.25;;;23.58;65.81
45467;BME280;31212;49.734;8.490;2023-07-28T11:37:41;99541.31;;;23.62;66.47
45467;BME280;31212;49.734;8.490;2023-07-28T11:40:09;99524.34;;;23.65;66.29
45467;BME280;31212;49.734;8.490;2023-07-28T11:42:38;99526.00;;;23.53;65.93
45467;BME280;31212;49.734;8.490;2023-07-28T11:45:07;99535.31;;;23.46;66.81
45467;BME280;31212;49.734;8.490;2023-07-28T11:47:35;99531.41;;;23.51;66.35
45467;BME280;31212;49.734;8.490;2023-07-28T11:50:01;99561.88;;;23.44;66.95
45467;BME280;31212;49.734;8.490;2023-07-28T11:52:30;99588.78;;;23.24;67.80
45467;BME280;31212;49.734;8.490;2023-07-28T11:54:58;99598.06;;;23.16;67.93
45467;BME280;31212;49.734;8.490;2023-07-28T11:57:25;99613.94;;;23.31;67.97
45467;BME280;31212;49.734;8.490;2023-07-28T11:59:52;99577.84;;;23.57;67.34
45467;BME280;31212;49.734;8.490;2023-07-28T12:02:26;99576.31;;;23.67;67.50
45467;BME280;31212;49.734;8.490;2023-07-28T12:04:53;99560.78;;;23.61;67.38
45467;BME280;31212;49.734;8.490;2023-07-28T12:07:27;99556.66;;;23.57;66.98
45467;BME280;31212;49.734;8.490;2023-07-28T12:09:54;99561.75;;;23.88;66.75
45467;BME280;31212;49.734;8.490;2023-07-28T12:12:24;99543.69;;;24.07;66.30
45467;BME280;31212;49.734;8.490;2023-07-28T12:14:52;99504.13;;;24.17;65.59
45467;BME280;31212;49.734;8.490;2023-07-28T12:17:20;99525.03;;;24.09;65.90
45467;BME280;31212;49.734;8.490;2023-07-28T12:20:00;99528.63;;;24.08;65.85
45467;BME280;31212;49.734;8.490;2023-07-28T12:22:27;99522.91;;;24.14;65.90
45467;BME280;31212;49.734;8.490;2023-07-28T12:24:54;99563.84;;;23.82;66.71
45467;BME280;31212;49.734;8.490;2023-07-28T12:27:21;99588.25;;;23.88;67.40
45467;BME280;31212;49.734;8.490;2023-07-28T12:29:50;99587.94;;;24.07;67.27
45467;BME280;31212;49.734;8.490;2023-07-28T12:32:16;99570.97;;;24.22;66.70
45467;BME280;31212;49.734;8.490;2023-07-28T12:34:43;99531.59;;;24.03;65.91
45467;BME280;31212;49.734;8.490;2023-07-28T12:37:10;99561.25;;;23.68;66.99
45467;BME280;31212;49.734;8.490;2023-07-28T12:39:38;99572.78;;;23.67;67.06
45467;BME280;31212;49.734;8.490;2023-07-28T12:42:05;99591.75;;;23.61;67.45
45467;BME280;31212;49.734;8.490;2023-07-28T12:44:32;99604.88;;;23.77;67.77
45467;BME280;31212;49.734;8.490;2023-07-28T12:46:58;99620.47;;;23.81;67.95
45467;BME280;31212;49.734;8.490;2023-07-28T12:49:25;99605.75;;;23.63;67.79
45467;BME280;31212;49.734;8.490;2023-07-28T12:51:54;99620.78;;;23.62;68.08
45467;BME280;31212;49.734;8.490;2023-07-28T12:54:23;99622.53;;;23.49;68.39
45467;BME280;31212;49.734;8.490;2023-07-28T12:56:50;99645.53;;;23.34;69.03
45467;BME280;31212;49.734;8.490;2023-07-28T12:59:16;99676.56;;;23.17;69.59
45467;BME280;31212;49.734;8.490;2023-07-28T13:01:43;99698.88;;;23.13;70.00
45467;BME280;31212;49.734;8.490;2023-07-28T13:04:09;99678.81;;;23.24;69.66
45467;BME280;31212;49.734;8.490;2023-07-28T13:06:36;99667.78;;;23.01;69.52
45467;BME280;31212;49.734;8.490;2023-07-28T13:09:03;99689.13;;;23.14;69.84
45467;BME280;31212;49.734;8.490;2023-07-28T13:11:31;99695.63;;;23.23;69.80
45467;BME280;31212;49.734;8.490;2023-07-28T13:13:58;99682.59;;;23.20;69.43
45467;BME280;31212;49.734;8.490;2023-07-28T13:16:24;99707.31;;;23.20;69.99
45467;BME280;31212;49.734;8.490;2023-07-28T13:18:51;99677.22;;;23.50;69.35
45467;BME280;31212;49.734;8.490;2023-07-28T13:21:18;99638.63;;;23.31;68.83
45467;BME280;31212;49.734;8.490;2023-07-28T13:23:44;99667.47;;;23.50;69.09
45467;BME280;31212;49.734;8.490;2023-07-28T13:26:11;99667.34;;;23.52;69.06
45467;BME280;31212;49.734;8.490;2023-07-28T13:28:39;99652.50;;;23.49;69.16
45467;BME280;31212;49.734;8.490;2023-07-28T13:31:08;99681.16;;;23.57;69.23
45467;BME280;31212;49.734;8.490;2023-07-28T13:33:35;99658.91;;;23.74;69.02
45467;BME280;31212;49.734;8.490;2023-07-28T13:36:04;99648.56;;;23.84;68.89
45467;BME280;31212;49.734;8.490;2023-07-28T13:38:33;99658.41;;;23.82;69.05
45467;BME280;31212;49.734;8.490;2023-07-28T13:40:59;99652.72;;;23.88;68.68
45467;BME280;31212;49.734;8.490;2023-07-28T13:43:26;99640.78;;;23.95;68.37
45467;BME280;31212;49.734;8.490;2023-07-28T13:45:54;99650.16;;;23.87;68.66
45467;BME280;31212;49.734;8.490;2023-07-28T13:48:20;99683.16;;;23.54;69.59
45467;BME280;31212;49.734;8.490;2023-07-28T13:50:47;99715.72;;;23.41;70.47
45467;BME280;31212;49.734;8.490;2023-07-28T13:53:13;99727.25;;;23.40;70.83
45467;BME280;31212;49.734;8.490;2023-07-28T13:55:40;99744.75;;;23.43;71.36
45467;BME280;31212;49.734;8.490;2023-07-28T13:58:06;99740.59;;;23.39;71.34
45467;BME280;31212;49.734;8.490;2023-07-28T14:00:33;99728.94;;;23.27;71.19
45467;BME280;31212;49.734;8.490;2023-07-28T14:03:01;99720.25;;;23.25;71.07
45467;BME280;31212;49.734;8.490;2023-07-28T14:05:27;99731.13;;;23.20;71.26
45467;BME280;31212;49.734;8.490;2023-07-28T14:07:54;99779.25;;;22.96;72.52
45467;BME280;31212;49.734;8.490;2023-07-28T14:10:20;99823.97;;;22.71;73.98
45467;BME280;31212;49.734;8.490;2023-07-28T14:12:47;99853.06;;;22.55;75.30
45467;BME280;31212;49.734;8.490;2023-07-28T14:15:13;99864.34;;;22.58;75.90
45467;BME280;31212;49.734;8.490;2023-07-28T14:17:40;99894.53;;;22.38;77.09
45467;BME280;31212;49.734;8.490;2023-07-28T14:20:08;99908.69;;;22.37;78.31
45467;BME280;31212;49.734;8.490;2023-07-28T14:22:35;99915.94;;;22.16;79.15
45467;BME280;31212;49.734;8.490;2023-07-28T14:25:01;99918.09;;;21.92;80.07
45467;BME280;31212;49.734;8.490;2023-07-28T14:27:28;99931.56;;;21.87;81.27
45467;BME280;31212;49.734;8.490;2023-07-28T14:29:55;99932.19;;;21.57;81.99
45467;BME280;31212;49.734;8.490;2023-07-28T14:32:21;99931.19;;;21.60;82.22
45467;BME280;31212;49.734;8.490;2023-07-28T14:34:48;99929.09;;;21.66;82.54
45467;BME280;31212;49.734;8.490;2023-07-28T14:37:16;99932.41;;;21.70;82.63
45467;BME280;31212;49.734;8.490;2023-07-28T14:39:42;99935.84;;;21.55;82.97
45467;BME280;31212;49.734;8.490;2023-07-28T14:42:09;99939.97;;;21.41;83.88
45467;BME280;31212;49.734;8.490;2023-07-28T14:44:36;99934.31;;;21.49;83.90
45467;BME280;31212;49.734;8.490;2023-07-28T14:47:02;99937.09;;;21.46;83.94
45467;BME280;31212;49.734;8.490;2023-07-28T14:49:28;99939.59;;;21.31;84.57
45467;BME280;31212;49.734;8.490;2023-07-28T14:51:55;99952.16;;;21.26;85.31
45467;BME280;31212;49.734;8.490;2023-07-28T14:54:23;99960.75;;;21.12;85.92
45467;BME280;31212;49.734;8.490;2023-07-28T14:56:49;99970.44;;;21.12;86.61
45467;BME280;31212;49.734;8.490;2023-07-28T14:59:16;99964.50;;;21.07;86.93
45467;BME280;31212;49.734;8.490;2023-07-28T15:01:43;99978.00;;;21.20;87.28
45467;BME280;31212;49.734;8.490;2023-07-28T15:04:09;99973.22;;;21.09;87.93
45467;BME280;31212;49.734;8.490;2023-07-28T15:06:36;99965.31;;;21.09;87.90
45467;BME280;31212;49.734;8.490;2023-07-28T15:09:03;99970.59;;;21.09;87.74
45467;BME280;31212;49.734;8.490;2023-07-28T15:11:31;99961.44;;;21.16;87.83
45467;BME280;31212;49.734;8.490;2023-07-28T15:13:58;99963.16;;;21.17;88.10
45467;BME280;31212;49.734;8.490;2023-07-28T15:16:24;99962.00;;;21.23;88.39
45467;BME280;31212;49.734;8.490;2023-07-28T15:18:51;99966.00;;;21.31;88.36
45467;BME280;31212;49.734;8.490;2023-07-28T15:21:17;99963.72;;;21.24;88.14
45467;BME280;31212;49.734;8.490;2023-07-28T15:23:45;99960.63;;;21.33;87.94
45467;BME280;31212;49.734;8.490;2023-07-28T15:26:12;99950.16;;;21.31;87.87
45467;BME280;31212;49.734;8.490;2023-07-28T15:28:39;99949.00;;;21.37;88.12
45467;BME280;31212;49.734;8.490;2023-07-28T15:31:06;99952.41;;;21.39;87.93
45467;BME280;31212;49.734;8.490;2023-07-28T15:33:32;99952.91;;;21.47;87.75
45467;BME280;31212;49.734;8.490;2023-07-28T15:35:59;99949.59;;;21.61;87.45
45467;BME280;31212;49.734;8.490;2023-07-28T15:38:26;99939.22;;;21.57;86.57
45467;BME280;31212;49.734;8.490;2023-07-28T15:40:52;99933.09;;;21.56;86.46
45467;BME280;31212;49.734;8.490;2023-07-28T15:43:22;99939.59;;;21.49;86.52
45467;BME280;31212;49.734;8.490;2023-07-28T15:45:50;99947.63;;;21.47;86.81
45467;BME280;31212;49.734;8.490;2023-07-28T15:48:19;99943.94;;;21.32;87.17
45467;BME280;31212;49.734;8.490;2023-07-28T15:50:46;99965.28;;;21.28;88.12
45467;BME280;31212;49.734;8.490;2023-07-28T15:53:12;99984.59;;;21.28;88.98
45467;BME280;31212;49.734;8.490;2023-07-28T15:55:39;99994.91;;;21.15;90.42
45467;BME280;31212;49.734;8.490;2023-07-28T15:58:05;100013.59;;;20.73;93.35
45467;BME280;31212;49.734;8.490;2023-07-28T16:00:32;100020.38;;;20.58;95.99
45467;BME280;31212;49.734;8.490;2023-07-28T16:03:00;100015.88;;;20.41;98.79
45467;BME280;31212;49.734;8.490;2023-07-28T16:05:26;100020.84;;;20.47;99.83
45467;BME280;31212;49.734;8.490;2023-07-28T16:07:53;100022.00;;;20.41;100.00
45467;BME280;31212;49.734;8.490;2023-07-28T16:10:19;100023.00;;;20.58;100.00
45467;BME280;31212;49.734;8.490;2023-07-28T16:12:46;100015.41;;;20.52;100.00
45467;BME280;31212;49.734;8.490;2023-07-28T16:15:12;100018.63;;;20.58;100.00
45467;BME280;31212;49.734;8.490;2023-07-28T16:17:39;100016.56;;;20.65;100.00
45467;BME280;31212;49.734;8.490;2023-07-28T16:20:08;100017.09;;;20.53;100.00
45467;BME280;31212;49.734;8.490;2023-07-28T16:22:34;100020.53;;;20.55;100.00
45467;BME280;31212;49.734;8.490;2023-07-28T16:25:01;100013.09;;;20.44;100.00
45467;BME280;31212;49.734;8.490;2023-07-28T16:27:27;100006.25;;;20.40;100.00
45467;BME280;31212;49.734;8.490;2023-07-28T16:29:54;100022.06;;;20.40;100.00
45467;BME280;31212;49.734;8.490;2023-07-28T16:32:20;100018.44;;;20.42;100.00
45467;BME280;31212;49.734;8.490;2023-07-28T16:34:47;100024.63;;;20.41;100.00
45467;BME280;31212;49.734;8.490;2023-07-28T16:37:14;100023.41;;;20.48;100.00
45467;BME280;31212;49.734;8.490;2023-07-28T16:39:41;100014.53;;;20.51;100.00
45467;BME280;31212;49.734;8.490;2023-07-28T16:42:07;100012.47;;;20.58;100.00
45467;BME280;31212;49.734;8.490;2023-07-28T16:44:34;100004.03;;;20.70;100.00
45467;BME280;31212;49.734;8.490;2023-07-28T16:47:00;99997.84;;;20.90;100.00
45467;BME280;31212;49.734;8.490;2023-07-28T16:49:27;99990.13;;;21.05;100.00
45467;BME280;31212;49.734;8.490;2023-07-28T16:51:53;99984.22;;;20.99;100.00
45467;BME280;31212;49.734;8.490;2023-07-28T16:54:21;99981.38;;;21.04;99.50
45467;BME280;31212;49.734;8.490;2023-07-28T16:56:48;99979.56;;;21.24;99.16
45467;BME280;31212;49.734;8.490;2023-07-28T16:59:14;99975.47;;;21.36;98.35
45467;BME280;31212;49.734;8.490;2023-07-28T17:01:41;99963.16;;;21.54;97.73
45467;BME280;31212;49.734;8.490;2023-07-28T17:04:07;99959.31;;;21.61;96.58
45467;BME280;31212;49.734;8.490;2023-07-28T17:06:33;99940.66;;;21.64;94.43
45467;BME280;31212;49.734;8.490;2023-07-28T17:09:00;99922.00;;;21.67;91.60
45467;BME280;31212;49.734;8.490;2023-07-28T17:11:28;99906.41;;;21.62;90.35
45467;BME280;31212;49.734;8.490;2023-07-28T17:13:54;99897.84;;;21.57;89.77
45467;BME280;31212;49.734;8.490;2023-07-28T17:16:21;99906.88;;;21.53;89.69
45467;BME280;31212;49.734;8.490;2023-07-28T17:18:48;99914.28;;;21.45;89.96
45467;BME280;31212;49.734;8.490;2023-07-28T17:21:14;99918.47;;;21.31;90.38
45467;BME280;31212;49.734;8.490;2023-07-28T17:23:41;99903.53;;;21.30;89.90
45467;BME280;31212;49.734;8.490;2023-07-28T17:26:08;99919.19;;;21.16;90.16
45467;BME280;31212;49.734;8.490;2023-07-28T17:28:36;99912.16;;;21.16;89.88
45467;BME280;31212;49.734;8.490;2023-07-28T17:31:02;99921.28;;;21.09;89.67
45467;BME280;31212;49.734;8.490;2023-07-28T17:33:29;99937.72;;;20.97;90.70
45467;BME280;31212;49.734;8.490;2023-07-28T17:35:55;99942.00;;;20.80;91.18
45467;BME280;31212;49.734;8.490;2023-07-28T17:38:24;99941.16;;;20.80;91.39
45467;BME280;31212;49.734;8.490;2023-07-28T17:40:50;99954.78;;;20.71;91.73
45467;BME280;31212;49.734;8.490;2023-07-28T17:43:17;99961.69;;;20.73;92.17
45467;BME280;31212;49.734;8.490;2023-07-28T17:45:45;99958.47;;;20.66;92.24
45467;BME280;31212;49.734;8.490;2023-07-28T17:48:14;99960.13;;;20.69;92.11
45467;BME280;31212;49.734;8.490;2023-07-28T17:50:40;99964.81;;;20.62;92.61
45467;BME280;31212;49.734;8.490;2023-07-28T17:53:07;99956.63;;;20.69;92.02
45467;BME280;31212;49.734;8.490;2023-07-28T17:55:33;99959.91;;;20.74;92.23
45467;BME280;31212;49.734;8.490;2023-07-28T17:58:00;99947.44;;;20.77;91.81
45467;BME280;31212;49.734;8.490;2023-07-28T18:00:26;99952.31;;;20.66;91.20
45467;BME280;31212;49.734;8.490;2023-07-28T18:02:54;99949.44;;;20.72;91.28
45467;BME280;31212;49.734;8.490;2023-07-28T18:05:21;99948.63;;;20.70;91.13
45467;BME280;31212;49.734;8.490;2023-07-28T18:07:47;99945.53;;;20.60;90.75
45467;BME280;31212;49.734;8.490;2023-07-28T18:10:14;99945.69;;;20.57;90.73
45467;BME280;31212;49.734;8.490;2023-07-28T18:12:40;99953.69;;;20.56;90.52